Latest Weather Observations for Cape Nelson

IDV60801

Issued at 5:42 am EDT Saturday 19 October 2019 (issued every 10 minutes, with the page automatically refreshed every 10 minutes)

About weather observations | Map of weather stations | Latest weather observations for VIC | Other Formats
Station Details ID: 090184 Name: CAPE NELSON LIGHTHOUSE Lat: -38.43 Lon: 141.54 Height: 45.4 m
Data from the previous 72 hours. | See also: Recent months at Cape Nelson
Date/Time
EDT
Temp
°C
App
Temp
°C
Dew
Point
°C
Rel
Hum
%
Delta-T
°C
Wind Press
QNH
hPa
Press
MSL
hPa
Rain since
9am
mm
Dir  Spd
km/h
Gust
km/h
Spd
kts
Gust
kts
19/05:35am 10.4 2.8 3.9 64 2.9 WSW 33 52 18 28 1012.3 1012.3 2.2
19/05:30am 10.4 2.5 4.3 66 2.7 WSW 35 50 19 27 1012.4 1012.4 2.2
19/05:08am 10.3 2.2 3.1 61 3.1 WSW 35 57 19 31 1012.3 1012.3 2.2
19/05:00am 10.4 3.0 4.8 68 2.5 W 33 48 18 26 1012.3 1012.3 2.2
19/04:32am 10.5 3.2 4.4 66 2.7 W 32 50 17 27 1012.2 1012.2 2.2
19/04:30am 10.5 3.0 4.2 65 2.8 W 33 50 18 27 1012.2 1012.2 2.2
19/04:27am 10.3 2.8 3.3 62 3.1 W 32 50 17 27 1012.2 1012.2 2.2
19/04:00am 10.8 1.8 2.6 57 3.5 WSW 39 56 21 30 1012.1 1012.1 2.2
19/03:35am 10.7 2.8 2.3 56 3.6 WSW 33 56 18 30 1012.2 1012.2 2.2
19/03:30am 10.7 2.5 2.5 57 3.5 WSW 35 50 19 27 1012.3 1012.3 2.2
19/03:00am 10.5 2.6 2.1 56 3.6 W 33 56 18 30 1012.3 1012.3 2.2
19/02:30am 10.7 0.8 1.8 54 3.8 WSW 43 61 23 33 1012.2 1012.2 2.2
19/02:12am 10.8 2.2 2.6 57 3.5 WSW 37 65 20 35 1012.4 1012.4 2.2
19/02:00am 10.8 3.3 4.7 66 2.8 WSW 33 48 18 26 1012.5 1012.5 2.2
19/01:37am 10.5 1.1 4.4 66 2.7 WSW 43 61 23 33 1012.5 1012.5 2.2
19/01:30am 10.7 1.4 5.0 68 2.6 WSW 43 57 23 31 1012.6 1012.6 2.2
19/01:00am 10.1 1.2 5.1 71 2.3 WSW 41 59 22 32 1012.7 1012.7 2.2
19/12:53am 10.3 3.0 5.5 72 2.2 WSW 33 59 18 32 1012.7 1012.7 2.2
19/12:30am 9.7 1.6 5.3 74 2.0 W 37 52 20 28 1012.8 1012.8 2.2
19/12:04am 9.7 2.7 6.1 78 1.7 WNW 32 59 17 32 1012.9 1012.9 2.2
19/12:02am 9.7 3.4 5.7 76 1.8 NW 28 48 15 26 1012.8 1012.8 2.0
19/12:00am 10.0 4.2 6.3 78 1.7 NW 26 39 14 21 1012.6 1012.6 2.0
 
Date/Time
EDT
Temp
°C
App
Temp
°C
Dew
Point
°C
Rel
Hum
%
Delta-T
°C
Wind Press
QNH
hPa
Press
MSL
hPa
Rain since
9am
mm
Dir  Spd
km/h
Gust
km/h
Spd
kts
Gust
kts
18/11:30pm 11.3 4.6 5.4 67 2.7 WSW 30 48 16 26 1012.8 1012.8 2.0
18/11:04pm 10.8 2.7 5.1 68 2.6 WSW 37 56 20 30 1013.0 1013.0 2.0
18/11:00pm 11.0 2.4 4.7 65 2.9 WSW 39 50 21 27 1013.0 1013.0 2.0
18/10:30pm 11.2 2.7 5.3 67 2.7 WSW 39 50 21 27 1013.0 1013.0 2.0
18/10:09pm 11.2 4.9 5.7 69 2.6 WSW 28 46 15 25 1013.0 1013.0 2.0
18/10:00pm 11.4 4.8 6.1 70 2.5 WSW 30 46 16 25 1012.9 1012.9 2.0
18/09:30pm 11.4 4.4 6.1 70 2.5 WSW 32 50 17 27 1013.0 1013.0 2.0
18/09:13pm 11.3 4.3 6.2 71 2.4 WSW 32 50 17 27 1012.8 1012.8 2.0
18/09:00pm 11.4 3.5 6.1 70 2.5 WSW 37 52 20 28 1012.6 1012.6 2.0
18/08:55pm 11.1 4.6 6.5 73 2.2 WSW 30 50 16 27 1012.6 1012.6 2.0
18/08:30pm 10.9 5.0 7.6 80 1.6 WSW 28 44 15 24 1012.5 1012.5 2.0
18/08:01pm 11.2 2.8 7.3 77 1.9 W 41 61 22 33 1011.7 1011.7 2.0
18/08:00pm 11.2 2.7 7.1 76 2.0 WSW 41 57 22 31 1011.8 1011.8 2.0
18/07:42pm 11.4 2.8 6.5 72 2.3 WSW 41 59 22 32 1011.8 1011.8 2.0
18/07:30pm 11.5 2.4 6.8 73 2.2 WSW 44 57 24 31 1011.7 1011.7 2.0
18/07:00pm 11.9 4.8 8.0 77 1.9 W 35 57 19 31 1011.0 1011.0 2.0
18/06:30pm 12.5 5.6 7.4 71 2.5 W 33 54 18 29 1010.8 1010.8 2.0
18/06:00pm 12.5 5.4 8.2 75 2.1 WSW 35 61 19 33 1010.6 1010.6 2.0
18/05:30pm 13.2 5.1 7.2 67 2.9 W 39 63 21 34 1010.1 1010.1 2.0
18/05:00pm 13.0 3.3 7.5 69 2.7 W 48 67 26 36 1009.7 1009.7 2.0
18/04:30pm 13.2 4.5 8.3 72 2.4 W 44 69 24 37 1009.5 1009.5 2.0
18/04:00pm 12.6 4.3 10.0 84 1.3 W 44 63 24 34 1009.3 1009.3 2.0
18/03:30pm 13.8 5.9 11.5 86 1.2 W 44 67 24 36 1009.1 1009.1 2.0
18/03:00pm 11.9 2.5 10.1 89 0.9 W 50 69 27 37 1009.2 1009.2 2.0
18/02:30pm 11.6 3.0 10.3 92 0.7 W 46 74 25 40 1009.5 1009.5 1.8
18/02:00pm 12.8 2.7 10.3 85 1.3 W 54 82 29 44 1009.2 1009.2 0.6
18/01:54pm 13.8 5.2 10.4 80 1.8 WNW 46 82 25 44 1009.2 1009.2 0.4
18/01:53pm 14.2 6.0 10.4 78 2.0 WNW 44 65 24 35 1009.2 1009.2 0.2
18/01:34pm 14.7 6.4 9.5 71 2.7 WNW 43 61 23 33 1008.9 1008.8 0.0
18/01:30pm 14.6 6.1 9.2 70 2.8 WNW 44 61 24 33 1008.9 1008.8 0.0
18/01:00pm 14.7 5.9 9.5 71 2.7 WNW 46 69 25 37 1009.1 1009.1 0.0
18/12:30pm 15.9 6.0 8.4 61 3.8 NW 50 70 27 38 1009.2 1009.2 0.0
18/12:00pm 15.6 6.8 7.9 60 3.9 NW 44 65 24 35 1009.4 1009.4 0.0
18/11:31am 15.4 6.1 7.4 59 4.0 NW 46 65 25 35 1009.5 1009.5 0.0
18/11:30am 15.3 5.6 7.3 59 4.0 NW 48 65 26 35 1009.5 1009.5 0.0
18/11:00am 15.4 6.6 8.2 62 3.6 NW 44 70 24 38 1009.8 1009.8 0.0
18/10:30am 14.5 6.7 8.2 66 3.2 NW 39 57 21 31 1010.2 1010.2 0.0
18/10:00am 13.7 7.0 8.3 70 2.7 NW 33 52 18 28 1010.6 1010.6 0.0
18/09:40am 13.0 5.6 8.3 73 2.3 NW 37 57 20 31 1010.5 1010.5 0.0
18/09:30am 12.5 5.8 8.0 74 2.2 NW 33 46 18 25 1010.7 1010.7 0.0
18/09:04am 12.3 5.5 7.8 74 2.2 NW 33 54 18 29 1011.0 1011.0 0.0
18/09:00am 12.0 5.3 7.5 74 2.2 NW 32 48 17 26 1011.0 1011.0 0.2
18/08:37am 11.6 4.9 7.5 76 2.0 NW 32 50 17 27 1011.2 1011.2 0.2
18/08:30am 11.6 4.8 7.5 76 2.0 NW 33 48 18 26 1011.3 1011.3 0.2
18/08:13am 11.6 5.7 7.5 76 2.0 NW 28 46 15 25 1011.2 1011.2 0.2
18/08:00am 11.3 5.0 7.2 76 2.0 NW 30 44 16 24 1011.2 1011.2 0.2
18/07:30am 11.0 4.2 7.1 77 1.9 NNW 32 48 17 26 1011.2 1011.2 0.2
18/07:21am 10.9 4.5 7.0 77 1.9 NNW 30 48 16 26 1011.2 1011.2 0.2
18/07:00am 10.8 4.3 6.6 75 2.0 NW 30 44 16 24 1011.4 1011.4 0.2
18/06:36am 10.7 4.6 6.5 75 2.0 NNW 28 46 15 25 1011.1 1011.1 0.2
18/06:30am 10.6 4.8 6.4 75 2.0 NNW 26 46 14 25 1011.2 1011.2 0.2
18/06:28am 10.6 4.5 6.4 75 2.0 NNW 28 46 15 25 1011.2 1011.2 0.2
18/06:00am 10.6 4.5 6.4 75 2.0 NNW 28 37 15 20 1011.1 1011.1 0.2
18/05:30am 10.6 4.5 6.4 75 2.0 NNW 28 39 15 21 1011.4 1011.4 0.2
18/05:00am 10.8 5.4 6.2 73 2.2 NW 24 37 13 20 1011.8 1011.8 0.2
18/04:30am 10.8 5.3 5.8 71 2.3 NW 24 35 13 19 1012.0 1012.0 0.2
18/04:00am 10.7 4.4 5.9 72 2.2 NNW 28 41 15 22 1012.4 1012.4 0.2
18/03:30am 10.6 5.1 5.8 72 2.2 NW 24 33 13 18 1012.9 1012.9 0.2
18/03:00am 11.0 4.7 5.5 69 2.5 NW 28 39 15 21 1013.1 1013.1 0.2
18/02:30am 11.3 4.2 5.4 67 2.7 NW 32 46 17 25 1013.5 1013.5 0.2
18/02:00am 11.1 4.3 5.0 66 2.8 NW 30 46 16 25 1013.9 1013.9 0.2
18/01:58am 11.1 4.7 5.0 66 2.8 NW 28 46 15 25 1013.9 1013.9 0.2
18/01:30am 11.1 4.7 5.0 66 2.8 NW 28 41 15 22 1014.3 1014.3 0.2
18/01:00am 11.4 5.1 5.7 68 2.6 WNW 28 39 15 21 1014.8 1014.8 0.2
18/12:36am 11.5 4.6 4.7 63 3.1 WNW 30 48 16 26 1014.8 1014.8 0.2
18/12:30am 11.6 5.4 6.1 69 2.6 WNW 28 43 15 23 1014.9 1014.9 0.2
18/12:11am 11.7 4.3 5.1 64 3.0 W 33 56 18 30 1014.9 1014.9 0.2
18/12:00am 11.5 6.1 6.4 71 2.4 WNW 24 35 13 19 1015.0 1015.0 0.2
 
Date/Time
EDT
Temp
°C
App
Temp
°C
Dew
Point
°C
Rel
Hum
%
Delta-T
°C
Wind Press
QNH
hPa
Press
MSL
hPa
Rain since
9am
mm
Dir  Spd
km/h
Gust
km/h
Spd
kts
Gust
kts
17/11:30pm 11.1 5.1 5.2 67 2.7 NW 26 35 14 19 1015.2 1015.2 0.2
17/11:00pm 11.7 5.5 6.2 69 2.6 WNW 28 43 15 23 1015.5 1015.5 0.2
17/10:30pm 11.7 4.9 5.3 65 3.0 WNW 30 39 16 21 1015.4 1015.4 0.2
17/10:00pm 11.6 4.9 5.7 67 2.7 WNW 30 41 16 22 1015.6 1015.6 0.2
17/09:48pm 11.5 5.1 5.2 65 2.9 WNW 28 46 15 25 1015.6 1015.6 0.2
17/09:30pm 11.6 4.5 5.5 66 2.8 WNW 32 43 17 23 1015.7 1015.7 0.2
17/09:00pm 11.7 4.5 5.8 67 2.8 W 33 46 18 25 1015.6 1015.6 0.2
17/08:30pm 11.7 5.0 7.2 74 2.2 W 32 50 17 27 1015.5 1015.5 0.2
17/08:29pm 11.7 4.9 7.0 73 2.3 W 32 50 17 27 1015.5 1015.5 0.2
17/08:00pm 11.7 4.5 5.1 64 3.0 W 32 44 17 24 1015.3 1015.3 0.2
17/07:40pm 11.8 4.3 4.5 61 3.3 W 33 52 18 28 1015.3 1015.3 0.2
17/07:30pm 11.7 4.2 6.2 69 2.6 W 35 48 19 26 1015.2 1015.2 0.2
17/07:00pm 11.6 5.9 4.8 63 3.1 W 24 41 13 22 1015.2 1015.2 0.2
17/06:30pm 11.4 5.0 5.3 66 2.8 WSW 28 43 15 23 1015.0 1015.0 0.2
17/06:00pm 11.7 5.0 5.8 67 2.8 WSW 30 43 16 23 1014.6 1014.6 0.2
17/05:30pm 11.8 4.3 6.3 69 2.6 WSW 35 46 19 25 1014.4 1014.4 0.2
17/05:00pm 11.7 3.9 6.6 71 2.4 WSW 37 50 20 27 1014.0 1014.0 0.2
17/04:30pm 11.9 2.8 7.0 72 2.4 WSW 44 57 24 31 1013.7 1013.7 0.2
17/04:00pm 11.6 2.3 7.5 76 2.0 WSW 46 59 25 32 1013.4 1013.4 0.2
17/03:31pm 11.8 3.6 8.3 79 1.7 WSW 41 59 22 32 1013.1 1013.1 0.2
17/03:30pm 12.1 3.6 8.6 79 1.7 WSW 43 59 23 32 1013.1 1013.1 0.2
17/03:10pm 11.8 3.9 7.9 77 1.9 W 39 57 21 31 1013.3 1013.3 0.2
17/03:00pm 11.5 3.0 8.7 83 1.4 WSW 43 56 23 30 1013.4 1013.4 0.2
17/02:30pm 11.5 5.6 8.9 84 1.3 W 30 48 16 26 1012.9 1012.9 0.2
17/02:15pm 11.3 5.8 9.0 86 1.1 WNW 28 46 15 25 1013.0 1013.0 0.2
17/02:08pm 11.8 3.5 9.2 84 1.3 W 43 61 23 33 1012.6 1012.6 0.2
17/02:07pm 11.8 3.5 9.2 84 1.3 W 43 61 23 33 1012.7 1012.7 0.2
17/02:00pm 11.5 2.6 9.1 85 1.2 WSW 46 61 25 33 1013.0 1013.0 0.2
17/01:41pm 11.2 3.9 8.8 85 1.2 W 37 61 20 33 1012.8 1012.8 0.2
17/01:37pm 11.2 4.3 8.9 86 1.1 WNW 35 54 19 29 1012.6 1012.6 0.2
17/01:36pm 11.5 4.7 9.4 87 1.1 WNW 35 54 19 29 1012.5 1012.5 0.2
17/01:34pm 11.5 4.4 9.4 87 1.1 W 37 54 20 29 1012.4 1012.4 0.2
17/01:30pm 11.4 3.4 9.1 86 1.2 WSW 41 54 22 29 1012.6 1012.6 0.2
17/01:04pm 11.4 2.8 9.0 85 1.2 WSW 44 63 24 34 1012.1 1012.1 0.2
17/01:00pm 11.6 3.6 9.0 84 1.3 WSW 41 57 22 31 1012.1 1012.1 0.2
17/12:30pm 11.3 2.9 8.9 85 1.2 WSW 43 61 23 33 1011.4 1011.4 0.2
17/12:00pm 11.3 2.7 8.7 84 1.3 WSW 44 65 24 35 1010.8 1010.8 0.2
17/11:33am 11.3 1.7 9.4 88 1.0 WSW 50 69 27 37 1010.2 1010.2 0.2
17/11:30am 11.4 0.7 9.5 88 1.0 WSW 56 70 30 38 1010.5 1010.5 0.2
17/11:16am 11.2 0.2 8.6 84 1.3 WSW 56 74 30 40 1010.2 1010.2 0.2
17/11:00am 11.0 -0.1 8.2 83 1.4 WSW 56 72 30 39 1010.1 1010.1 0.2
17/10:32am 11.3 0.8 9.0 86 1.1 WSW 54 72 29 39 1009.9 1009.9 0.0
17/10:30am 11.2 0.3 8.9 86 1.1 WSW 56 72 30 39 1009.9 1009.9 0.0
17/10:00am 10.8 -1.0 7.5 80 1.6 WSW 59 80 32 43 1009.3 1009.3 0.0
17/09:31am 10.7 -0.4 7.8 82 1.4 WSW 56 74 30 40 1009.0 1008.9 0.0
17/09:30am 10.7 -0.6 7.8 82 1.4 WSW 57 74 31 40 1009.0 1008.9 0.0
17/09:00am 9.8 -0.2 7.9 88 0.9 WSW 50 70 27 38 1008.5 1008.4 17.6
17/08:30am 9.5 -0.7 6.9 84 1.2 WSW 50 72 27 39 1008.3 1008.2 15.4
17/08:24am 10.4 1.7 7.5 82 1.4 WSW 43 72 23 39 1008.1 1008.0 14.8
17/08:23am 10.8 2.1 7.7 81 1.5 WSW 43 72 23 39 1008.1 1008.0 14.6
17/08:00am 10.3 2.7 7.7 84 1.3 WSW 37 69 20 37 1008.0 1007.9 14.4
17/07:47am 10.2 0.6 6.2 76 1.9 WSW 46 82 25 44 1007.7 1007.6 13.2
17/07:30am 10.4 1.9 6.9 79 1.7 WSW 41 74 22 40 1007.9 1007.8 13.2
17/07:29am 10.4 1.3 6.9 79 1.7 WSW 44 74 24 40 1007.9 1007.8 13.2
17/07:27am 10.2 0.3 6.4 77 1.8 WSW 48 74 26 40 1007.9 1007.8 13.0
17/07:00am 11.0 -0.7 5.5 69 2.5 WSW 56 74 30 40 1007.3 1007.2 13.0
17/06:39am 11.0 0.7 6.7 75 2.0 WSW 50 74 27 40 1007.0 1006.9 13.0
17/06:36am 10.7 1.6 6.1 73 2.1 W 43 74 23 40 1007.0 1006.9 13.0
17/06:32am 10.4 3.6 7.1 80 1.6 WNW 32 69 17 37 1006.9 1006.8 13.0
17/06:31am 10.4 4.5 7.6 83 1.3 WNW 28 50 15 27 1006.9 1006.8 13.0
17/06:30am 10.3 4.4 7.4 82 1.4 NW 28 43 15 23 1006.9 1006.8 13.0
17/06:05am 9.6 3.0 6.0 78 1.7 NW 30 65 16 35 1006.6 1006.5 12.4
17/06:00am 10.1 1.8 6.1 76 1.9 W 39 59 21 32 1006.3 1006.2 12.0
17/05:30am 10.5 3.2 7.0 79 1.7 W 35 57 19 31 1006.4 1006.3 11.6
17/05:04am 10.6 1.6 7.3 80 1.6 WSW 44 63 24 34 1006.3 1006.2 11.6
17/05:00am 10.6 2.1 7.1 79 1.7 WSW 41 63 22 34 1006.2 1006.1 11.6
17/04:42am 10.4 -0.2 7.1 80 1.6 WSW 52 72 28 39 1006.0 1005.9 11.6
17/04:39am 10.6 0.4 6.9 78 1.8 WSW 50 72 27 39 1006.0 1005.9 11.6
17/04:30am 10.7 3.4 7.0 78 1.8 WSW 35 54 19 29 1006.1 1006.0 11.6
17/04:00am 10.3 3.4 7.4 82 1.4 W 33 57 18 31 1006.3 1006.2 11.6
17/03:30am 9.6 2.7 6.3 80 1.5 W 32 50 17 27 1006.2 1006.1 11.6
17/03:00am 9.5 2.7 6.9 84 1.2 W 32 50 17 27 1006.2 1006.1 11.6
17/02:36am 9.3 1.9 6.6 83 1.3 W 35 54 19 29 1006.4 1006.3 10.6
17/02:30am 9.7 2.9 6.8 82 1.4 W 32 48 17 26 1006.4 1006.3 10.4
17/02:00am 8.5 0.3 6.6 88 0.9 W 39 69 21 37 1007.1 1007.0 10.0
17/01:30am 9.9 2.2 7.3 84 1.2 W 37 57 20 31 1006.5 1006.4 8.6
17/01:29am 9.6 1.9 7.0 84 1.2 W 37 57 20 31 1006.5 1006.4 8.6
17/01:18am 9.3 3.5 7.9 91 0.7 NW 28 46 15 25 1006.7 1006.6 8.6
17/01:00am 9.0 2.8 7.8 92 0.6 NW 30 44 16 24 1006.8 1006.7 8.6
17/12:30am 8.8 2.5 7.6 92 0.6 NW 30 43 16 23 1007.1 1007.0 8.6
17/12:00am 8.9 3.8 7.7 92 0.6 NW 24 33 13 18 1007.2 1007.1 7.8
 
Date/Time
EDT
Temp
°C
App
Temp
°C
Dew
Point
°C
Rel
Hum
%
Delta-T
°C
Wind Press
QNH
hPa
Press
MSL
hPa
Rain since
9am
mm
Dir  Spd
km/h
Gust
km/h
Spd
kts
Gust
kts
16/11:30pm 9.1 5.0 7.9 92 0.6 NNW 19 30 10 16 1007.3 1007.2 7.8
16/11:00pm 9.6 4.3 8.5 93 0.5 NW 26 37 14 20 1008.0 1007.9 7.6
16/10:30pm 9.8 4.6 8.7 93 0.5 WNW 26 37 14 20 1008.0 1007.9 7.6
16/10:00pm 9.6 2.5 7.9 89 0.8 W 35 56 19 30 1008.6 1008.5 4.8
16/09:56pm 9.9 3.7 8.0 88 0.9 WNW 30 54 16 29 1008.5 1008.4 4.0
16/09:54pm 10.2 4.4 8.1 87 1.0 WNW 28 54 15 29 1008.3 1008.2 3.6
16/09:30pm 11.1 6.7 8.8 86 1.1 NW 22 32 12 17 1008.2 1008.1 3.0
16/09:00pm 11.2 4.1 8.2 82 1.5 WNW 35 50 19 27 1008.3 1008.2 2.8
16/08:30pm 12.6 7.4 7.1 69 2.7 WNW 24 35 13 19 1008.3 1008.2 2.8
16/08:00pm 12.5 8.1 9.0 79 1.8 WNW 22 32 12 17 1008.3 1008.2 2.8
16/07:30pm 12.6 7.6 8.1 74 2.2 WNW 24 33 13 18 1008.3 1008.2 2.8
16/07:00pm 13.3 8.8 8.6 73 2.4 WNW 22 32 12 17 1008.4 1008.3 2.8
16/06:30pm 13.8 9.7 8.8 72 2.5 WNW 20 28 11 15 1008.5 1008.4 2.8
16/06:00pm 13.6 8.2 8.2 70 2.7 W 26 35 14 19 1008.6 1008.5 2.8
16/05:30pm 13.8 9.0 8.8 72 2.5 W 24 35 13 19 1008.6 1008.5 2.8
16/05:00pm 13.8 9.0 8.8 72 2.5 W 24 33 13 18 1008.7 1008.6 2.8
16/04:30pm 13.9 9.9 8.9 72 2.5 W 20 32 11 17 1008.7 1008.6 2.8
16/04:00pm 13.9 9.9 8.9 72 2.5 W 20 30 11 16 1008.8 1008.7 2.8
16/03:30pm 13.6 10.2 9.1 74 2.3 W 17 24 9 13 1009.2 1009.2 2.8
16/03:00pm 13.3 9.6 9.4 77 2.0 W 19 28 10 15 1009.5 1009.5 2.8
16/02:30pm 13.3 9.6 10.1 81 1.7 WSW 20 32 11 17 1009.9 1009.9 2.8
16/02:00pm 13.9 11.0 10.9 82 1.6 W 17 26 9 14 1010.0 1010.0 2.8
16/01:30pm 13.2 10.6 10.6 84 1.4 WSW 15 24 8 13 1009.9 1009.9 2.8
16/01:00pm 13.3 11.6 11.2 87 1.1 WSW 11 17 6 9 1010.0 1010.0 2.8
16/12:30pm 12.8 11.8 10.9 88 1.0 WNW 7 13 4 7 1010.2 1010.2 2.8
16/12:00pm 13.0 12.3 11.9 93 0.6 WSW 7 9 4 5 1010.5 1010.5 2.8
16/11:30am 12.7 12.0 12.1 96 0.3 SE 7 11 4 6 1010.7 1010.7 2.8
16/11:00am 11.8 10.9 11.2 96 0.3 NNE 7 11 4 6 1010.7 1010.7 2.8
16/10:30am 11.7 9.2 11.1 96 0.3 ENE 15 20 8 11 1010.4 1010.4 2.8
16/10:00am 11.1 9.5 10.3 95 0.4 NNW 9 13 5 7 1011.3 1011.3 1.6
16/09:30am 11.3 9.8 10.4 94 0.5 WNW 9 17 5 9 1011.3 1011.3 0.8
16/09:00am 11.2 9.6 10.3 94 0.5 W 9 13 5 7 1011.1 1011.1 6.0
16/08:30am 11.1 11.2 10.2 94 0.5 CALM 0 6 0 3 1011.3 1011.3 6.0
16/08:00am 10.8 10.5 10.0 95 0.4 N 2 6 1 3 1011.2 1011.2 6.0
16/07:30am 10.6 9.4 9.7 94 0.5 W 6 9 3 5 1011.3 1011.3 5.8
16/07:00am 10.6 9.2 9.7 94 0.5 NW 7 11 4 6 1011.2 1011.2 4.0
16/06:30am 10.3 8.8 9.2 93 0.5 NNW 7 11 4 6 1011.1 1011.1 2.0
16/06:00am 10.3 10.0 8.7 90 0.8 CALM 0 0 0 0 1011.1 1011.1 0.6

Other formats

Comma delimited format used in spreadsheet applications
http://www.bom.gov.au/fwo/IDV60801/IDV60801.94826.axf

JavaScript Object Notation format (JSON) in row-major order
http://www.bom.gov.au/fwo/IDV60801/IDV60801.94826.json

Data quality

Most of these data are generated automatically and are frequently updated. Quality checks on data are not normally performed. It is possible for incorrect values to appear. Refer to information at About Latest Weather Observations and please check the disclaimer before using these data.